sensor_id;sensor_type;location;lat;lon;timestamp;P1;durP1;ratioP1;P2;durP2;ratioP2
78877;SDS011;68257;43.514;1.498;2023-03-24T00:01:14;9.73;;;4.70;;
78877;SDS011;68257;43.514;1.498;2023-03-24T00:03:40;7.10;;;4.28;;
78877;SDS011;68257;43.514;1.498;2023-03-24T00:06:09;6.05;;;3.78;;
78877;SDS011;68257;43.514;1.498;2023-03-24T00:08:37;7.32;;;4.20;;
78877;SDS011;68257;43.514;1.498;2023-03-24T00:11:05;6.53;;;3.92;;
78877;SDS011;68257;43.514;1.498;2023-03-24T00:13:35;6.97;;;4.40;;
78877;SDS011;68257;43.514;1.498;2023-03-24T00:16:05;7.43;;;4.10;;
78877;SDS011;68257;43.514;1.498;2023-03-24T00:18:32;7.32;;;4.22;;
78877;SDS011;68257;43.514;1.498;2023-03-24T00:20:58;6.82;;;3.90;;
78877;SDS011;68257;43.514;1.498;2023-03-24T00:23:25;5.85;;;3.22;;
78877;SDS011;68257;43.514;1.498;2023-03-24T00:26:01;6.90;;;3.67;;
78877;SDS011;68257;43.514;1.498;2023-03-24T00:28:32;7.47;;;3.50;;
78877;SDS011;68257;43.514;1.498;2023-03-24T00:31:01;6.78;;;3.50;;
78877;SDS011;68257;43.514;1.498;2023-03-24T00:33:27;5.38;;;3.45;;
78877;SDS011;68257;43.514;1.498;2023-03-24T00:35:57;6.53;;;3.95;;
78877;SDS011;68257;43.514;1.498;2023-03-24T00:38:23;5.53;;;3.67;;
78877;SDS011;68257;43.514;1.498;2023-03-24T00:40:48;5.95;;;3.70;;
78877;SDS011;68257;43.514;1.498;2023-03-24T00:43:15;6.88;;;3.90;;
78877;SDS011;68257;43.514;1.498;2023-03-24T00:45:41;6.30;;;3.90;;
78877;SDS011;68257;43.514;1.498;2023-03-24T00:48:16;6.57;;;3.88;;
78877;SDS011;68257;43.514;1.498;2023-03-24T00:50:49;7.35;;;3.92;;
78877;SDS011;68257;43.514;1.498;2023-03-24T00:53:16;5.35;;;3.08;;
78877;SDS011;68257;43.514;1.498;2023-03-24T00:55:42;6.80;;;3.75;;
78877;SDS011;68257;43.514;1.498;2023-03-24T00:58:15;8.40;;;3.17;;
78877;SDS011;68257;43.514;1.498;2023-03-24T01:00:47;7.88;;;4.00;;
78877;SDS011;68257;43.514;1.498;2023-03-24T01:03:14;7.20;;;3.70;;
78877;SDS011;68257;43.514;1.498;2023-03-24T01:05:41;6.75;;;3.05;;
78877;SDS011;68257;43.514;1.498;2023-03-24T01:08:12;4.68;;;2.75;;
78877;SDS011;68257;43.514;1.498;2023-03-24T01:10:38;5.63;;;3.50;;
78877;SDS011;68257;43.514;1.498;2023-03-24T01:13:18;6.43;;;3.60;;
78877;SDS011;68257;43.514;1.498;2023-03-24T01:15:53;5.10;;;3.05;;
78877;SDS011;68257;43.514;1.498;2023-03-24T01:18:19;6.75;;;3.20;;
78877;SDS011;68257;43.514;1.498;2023-03-24T01:20:47;6.18;;;3.13;;
78877;SDS011;68257;43.514;1.498;2023-03-24T01:23:14;4.57;;;2.97;;
78877;SDS011;68257;43.514;1.498;2023-03-24T01:25:43;5.45;;;2.90;;
78877;SDS011;68257;43.514;1.498;2023-03-24T01:28:13;4.82;;;2.60;;
78877;SDS011;68257;43.514;1.498;2023-03-24T01:30:41;5.32;;;2.60;;
78877;SDS011;68257;43.514;1.498;2023-03-24T01:33:07;6.25;;;2.70;;
78877;SDS011;68257;43.514;1.498;2023-03-24T01:35:34;4.90;;;2.55;;
78877;SDS011;68257;43.514;1.498;2023-03-24T01:38:00;4.25;;;2.17;;
78877;SDS011;68257;43.514;1.498;2023-03-24T01:40:30;5.13;;;2.20;;
78877;SDS011;68257;43.514;1.498;2023-03-24T01:42:57;3.60;;;2.00;;
78877;SDS011;68257;43.514;1.498;2023-03-24T01:45:40;3.92;;;2.22;;
78877;SDS011;68257;43.514;1.498;2023-03-24T01:48:16;4.30;;;2.35;;
78877;SDS011;68257;43.514;1.498;2023-03-24T01:50:47;5.45;;;2.20;;
78877;SDS011;68257;43.514;1.498;2023-03-24T01:53:16;3.70;;;2.17;;
78877;SDS011;68257;43.514;1.498;2023-03-24T01:55:42;4.80;;;1.75;;
78877;SDS011;68257;43.514;1.498;2023-03-24T01:58:10;3.95;;;2.20;;
78877;SDS011;68257;43.514;1.498;2023-03-24T02:00:36;4.75;;;2.53;;
78877;SDS011;68257;43.514;1.498;2023-03-24T02:03:04;4.53;;;2.30;;
78877;SDS011;68257;43.514;1.498;2023-03-24T02:05:32;4.93;;;2.58;;
78877;SDS011;68257;43.514;1.498;2023-03-24T02:10:42;5.53;;;2.60;;
78877;SDS011;68257;43.514;1.498;2023-03-24T02:13:08;5.50;;;2.93;;
78877;SDS011;68257;43.514;1.498;2023-03-24T02:15:37;4.55;;;2.60;;
78877;SDS011;68257;43.514;1.498;2023-03-24T02:18:13;4.75;;;2.50;;
78877;SDS011;68257;43.514;1.498;2023-03-24T02:20:51;6.18;;;3.20;;
78877;SDS011;68257;43.514;1.498;2023-03-24T02:23:37;5.35;;;2.80;;
78877;SDS011;68257;43.514;1.498;2023-03-24T02:26:35;4.30;;;2.55;;
78877;SDS011;68257;43.514;1.498;2023-03-24T02:37:41;4.88;;;2.55;;
78877;SDS011;68257;43.514;1.498;2023-03-24T02:43:25;4.65;;;2.28;;
78877;SDS011;68257;43.514;1.498;2023-03-24T02:46:12;4.03;;;2.30;;
78877;SDS011;68257;43.514;1.498;2023-03-24T02:48:44;4.25;;;2.63;;
78877;SDS011;68257;43.514;1.498;2023-03-24T02:51:16;4.70;;;2.60;;
78877;SDS011;68257;43.514;1.498;2023-03-24T02:56:36;5.18;;;2.35;;
78877;SDS011;68257;43.514;1.498;2023-03-24T02:59:06;4.85;;;2.70;;
78877;SDS011;68257;43.514;1.498;2023-03-24T03:01:39;4.20;;;2.20;;
78877;SDS011;68257;43.514;1.498;2023-03-24T03:04:12;4.32;;;2.63;;
78877;SDS011;68257;43.514;1.498;2023-03-24T03:06:41;4.10;;;2.22;;
78877;SDS011;68257;43.514;1.498;2023-03-24T03:09:09;5.82;;;2.60;;
78877;SDS011;68257;43.514;1.498;2023-03-24T03:11:37;4.63;;;2.58;;
78877;SDS011;68257;43.514;1.498;2023-03-24T03:14:08;5.53;;;2.42;;
78877;SDS011;68257;43.514;1.498;2023-03-24T03:16:40;5.50;;;2.60;;
78877;SDS011;68257;43.514;1.498;2023-03-24T03:19:23;5.35;;;2.60;;
78877;SDS011;68257;43.514;1.498;2023-03-24T03:22:15;3.80;;;1.95;;
78877;SDS011;68257;43.514;1.498;2023-03-24T03:24:43;5.28;;;2.75;;
78877;SDS011;68257;43.514;1.498;2023-03-24T03:27:21;4.95;;;2.40;;
78877;SDS011;68257;43.514;1.498;2023-03-24T03:30:37;6.43;;;2.92;;
78877;SDS011;68257;43.514;1.498;2023-03-24T03:32:43;5.10;;;2.55;;
78877;SDS011;68257;43.514;1.498;2023-03-24T03:38:17;6.28;;;2.60;;
78877;SDS011;68257;43.514;1.498;2023-03-24T03:43:19;4.00;;;2.20;;
78877;SDS011;68257;43.514;1.498;2023-03-24T03:45:45;4.20;;;2.13;;
78877;SDS011;68257;43.514;1.498;2023-03-24T03:48:11;3.38;;;1.77;;
78877;SDS011;68257;43.514;1.498;2023-03-24T03:50:36;5.03;;;2.63;;
78877;SDS011;68257;43.514;1.498;2023-03-24T03:53:03;5.40;;;2.90;;
78877;SDS011;68257;43.514;1.498;2023-03-24T03:55:29;4.53;;;2.83;;
78877;SDS011;68257;43.514;1.498;2023-03-24T03:57:56;5.87;;;2.87;;
78877;SDS011;68257;43.514;1.498;2023-03-24T04:00:21;6.45;;;2.95;;
78877;SDS011;68257;43.514;1.498;2023-03-24T04:05:40;6.68;;;3.05;;
78877;SDS011;68257;43.514;1.498;2023-03-24T04:08:13;5.13;;;2.80;;
78877;SDS011;68257;43.514;1.498;2023-03-24T04:13:38;5.38;;;2.92;;
78877;SDS011;68257;43.514;1.498;2023-03-24T04:30:25;6.00;;;3.47;;
78877;SDS011;68257;43.514;1.498;2023-03-24T04:33:38;6.90;;;3.65;;
78877;SDS011;68257;43.514;1.498;2023-03-24T04:35:51;6.15;;;3.63;;
78877;SDS011;68257;43.514;1.498;2023-03-24T04:38:19;9.07;;;3.23;;
78877;SDS011;68257;43.514;1.498;2023-03-24T04:40:47;6.15;;;4.00;;
78877;SDS011;68257;43.514;1.498;2023-03-24T04:43:14;7.78;;;3.90;;
78877;SDS011;68257;43.514;1.498;2023-03-24T04:45:41;8.80;;;4.25;;
78877;SDS011;68257;43.514;1.498;2023-03-24T04:48:08;8.15;;;4.80;;
78877;SDS011;68257;43.514;1.498;2023-03-24T04:50:38;5.60;;;3.77;;
78877;SDS011;68257;43.514;1.498;2023-03-24T04:53:05;8.77;;;4.80;;
78877;SDS011;68257;43.514;1.498;2023-03-24T04:58:48;7.72;;;4.22;;
78877;SDS011;68257;43.514;1.498;2023-03-24T05:01:15;7.63;;;4.20;;
78877;SDS011;68257;43.514;1.498;2023-03-24T05:03:41;7.43;;;4.22;;
78877;SDS011;68257;43.514;1.498;2023-03-24T05:06:09;7.28;;;4.38;;
78877;SDS011;68257;43.514;1.498;2023-03-24T05:08:36;8.50;;;4.68;;
78877;SDS011;68257;43.514;1.498;2023-03-24T05:11:02;7.70;;;4.67;;
78877;SDS011;68257;43.514;1.498;2023-03-24T05:13:27;9.27;;;5.47;;
78877;SDS011;68257;43.514;1.498;2023-03-24T05:15:53;8.00;;;4.65;;
78877;SDS011;68257;43.514;1.498;2023-03-24T05:18:18;8.17;;;5.07;;
78877;SDS011;68257;43.514;1.498;2023-03-24T05:20:44;7.83;;;4.80;;
78877;SDS011;68257;43.514;1.498;2023-03-24T05:23:10;10.05;;;4.70;;
78877;SDS011;68257;43.514;1.498;2023-03-24T05:25:35;8.43;;;4.90;;
78877;SDS011;68257;43.514;1.498;2023-03-24T05:28:00;8.00;;;4.90;;
78877;SDS011;68257;43.514;1.498;2023-03-24T05:30:26;9.10;;;4.53;;
78877;SDS011;68257;43.514;1.498;2023-03-24T05:32:52;8.57;;;5.30;;
78877;SDS011;68257;43.514;1.498;2023-03-24T05:35:17;10.33;;;5.07;;
78877;SDS011;68257;43.514;1.498;2023-03-24T05:37:43;9.50;;;5.60;;
78877;SDS011;68257;43.514;1.498;2023-03-24T05:40:08;8.55;;;5.57;;
78877;SDS011;68257;43.514;1.498;2023-03-24T05:42:34;8.73;;;5.63;;
78877;SDS011;68257;43.514;1.498;2023-03-24T05:45:00;9.30;;;5.10;;
78877;SDS011;68257;43.514;1.498;2023-03-24T05:47:25;10.30;;;5.17;;
78877;SDS011;68257;43.514;1.498;2023-03-24T05:49:51;9.32;;;5.57;;
78877;SDS011;68257;43.514;1.498;2023-03-24T05:52:17;16.80;;;15.00;;
78877;SDS011;68257;43.514;1.498;2023-03-24T05:54:44;7.72;;;3.75;;
78877;SDS011;68257;43.514;1.498;2023-03-24T05:57:11;10.23;;;5.03;;
78877;SDS011;68257;43.514;1.498;2023-03-24T05:59:38;8.30;;;4.90;;
78877;SDS011;68257;43.514;1.498;2023-03-24T06:02:04;8.95;;;4.72;;
78877;SDS011;68257;43.514;1.498;2023-03-24T06:04:29;9.27;;;7.07;;
78877;SDS011;68257;43.514;1.498;2023-03-24T06:06:55;11.47;;;5.63;;
78877;SDS011;68257;43.514;1.498;2023-03-24T06:09:23;9.20;;;4.70;;
78877;SDS011;68257;43.514;1.498;2023-03-24T06:11:59;7.80;;;5.25;;
78877;SDS011;68257;43.514;1.498;2023-03-24T06:14:24;8.45;;;4.57;;
78877;SDS011;68257;43.514;1.498;2023-03-24T06:16:50;9.30;;;4.73;;
78877;SDS011;68257;43.514;1.498;2023-03-24T06:19:16;9.67;;;5.23;;
78877;SDS011;68257;43.514;1.498;2023-03-24T06:21:42;7.25;;;4.63;;
78877;SDS011;68257;43.514;1.498;2023-03-24T06:24:08;9.00;;;5.18;;
78877;SDS011;68257;43.514;1.498;2023-03-24T06:26:38;8.52;;;5.38;;
78877;SDS011;68257;43.514;1.498;2023-03-24T06:29:06;10.52;;;5.57;;
78877;SDS011;68257;43.514;1.498;2023-03-24T06:31:32;8.77;;;5.10;;
78877;SDS011;68257;43.514;1.498;2023-03-24T06:33:58;10.00;;;5.45;;
78877;SDS011;68257;43.514;1.498;2023-03-24T06:36:23;7.88;;;4.93;;
78877;SDS011;68257;43.514;1.498;2023-03-24T06:38:49;9.80;;;4.90;;
78877;SDS011;68257;43.514;1.498;2023-03-24T06:41:15;8.40;;;5.45;;
78877;SDS011;68257;43.514;1.498;2023-03-24T06:43:40;10.73;;;5.18;;
78877;SDS011;68257;43.514;1.498;2023-03-24T06:46:06;11.33;;;5.63;;
78877;SDS011;68257;43.514;1.498;2023-03-24T06:48:31;9.10;;;5.70;;
78877;SDS011;68257;43.514;1.498;2023-03-24T06:50:57;13.27;;;6.15;;
78877;SDS011;68257;43.514;1.498;2023-03-24T06:53:23;7.87;;;5.20;;
78877;SDS011;68257;43.514;1.498;2023-03-24T06:55:48;10.60;;;4.87;;
78877;SDS011;68257;43.514;1.498;2023-03-24T06:58:14;8.32;;;4.85;;
78877;SDS011;68257;43.514;1.498;2023-03-24T07:00:40;8.05;;;4.85;;
78877;SDS011;68257;43.514;1.498;2023-03-24T07:03:06;10.82;;;6.10;;
78877;SDS011;68257;43.514;1.498;2023-03-24T07:05:32;8.90;;;5.75;;
78877;SDS011;68257;43.514;1.498;2023-03-24T07:08:02;11.37;;;4.53;;
78877;SDS011;68257;43.514;1.498;2023-03-24T07:10:28;6.97;;;4.60;;
78877;SDS011;68257;43.514;1.498;2023-03-24T07:12:53;7.30;;;4.90;;
78877;SDS011;68257;43.514;1.498;2023-03-24T07:15:18;9.23;;;5.57;;
78877;SDS011;68257;43.514;1.498;2023-03-24T07:17:44;10.13;;;4.95;;
78877;SDS011;68257;43.514;1.498;2023-03-24T07:20:09;9.73;;;4.90;;
78877;SDS011;68257;43.514;1.498;2023-03-24T07:22:35;7.53;;;4.60;;
78877;SDS011;68257;43.514;1.498;2023-03-24T07:25:03;11.65;;;5.00;;
78877;SDS011;68257;43.514;1.498;2023-03-24T07:27:30;8.35;;;4.55;;
78877;SDS011;68257;43.514;1.498;2023-03-24T07:29:59;7.43;;;4.55;;
78877;SDS011;68257;43.514;1.498;2023-03-24T07:32:25;6.88;;;4.68;;
78877;SDS011;68257;43.514;1.498;2023-03-24T07:34:53;8.88;;;4.80;;
78877;SDS011;68257;43.514;1.498;2023-03-24T07:37:19;7.57;;;5.07;;
78877;SDS011;68257;43.514;1.498;2023-03-24T07:39:45;8.43;;;4.88;;
78877;SDS011;68257;43.514;1.498;2023-03-24T07:42:11;8.45;;;4.93;;
78877;SDS011;68257;43.514;1.498;2023-03-24T07:44:37;8.40;;;3.73;;
78877;SDS011;68257;43.514;1.498;2023-03-24T07:47:02;6.50;;;4.17;;
78877;SDS011;68257;43.514;1.498;2023-03-24T07:49:27;9.53;;;4.30;;
78877;SDS011;68257;43.514;1.498;2023-03-24T07:51:53;6.75;;;4.10;;
78877;SDS011;68257;43.514;1.498;2023-03-24T07:54:18;9.03;;;4.30;;
78877;SDS011;68257;43.514;1.498;2023-03-24T07:56:44;7.87;;;4.23;;
78877;SDS011;68257;43.514;1.498;2023-03-24T07:59:09;8.57;;;4.10;;
78877;SDS011;68257;43.514;1.498;2023-03-24T08:01:35;8.20;;;3.78;;
78877;SDS011;68257;43.514;1.498;2023-03-24T08:04:02;8.63;;;3.73;;
78877;SDS011;68257;43.514;1.498;2023-03-24T08:06:29;8.45;;;3.65;;
78877;SDS011;68257;43.514;1.498;2023-03-24T08:08:54;8.05;;;4.20;;
78877;SDS011;68257;43.514;1.498;2023-03-24T08:11:20;7.85;;;3.90;;
78877;SDS011;68257;43.514;1.498;2023-03-24T08:13:46;7.47;;;3.83;;
78877;SDS011;68257;43.514;1.498;2023-03-24T08:16:11;6.78;;;3.85;;
78877;SDS011;68257;43.514;1.498;2023-03-24T08:18:37;6.15;;;3.30;;
78877;SDS011;68257;43.514;1.498;2023-03-24T08:21:02;8.27;;;3.87;;
78877;SDS011;68257;43.514;1.498;2023-03-24T08:23:28;6.55;;;3.47;;
78877;SDS011;68257;43.514;1.498;2023-03-24T08:25:53;6.53;;;2.97;;
78877;SDS011;68257;43.514;1.498;2023-03-24T08:28:19;8.03;;;3.63;;
78877;SDS011;68257;43.514;1.498;2023-03-24T08:30:45;5.90;;;3.42;;
78877;SDS011;68257;43.514;1.498;2023-03-24T08:33:12;7.18;;;3.20;;
78877;SDS011;68257;43.514;1.498;2023-03-24T08:35:39;7.18;;;3.45;;
78877;SDS011;68257;43.514;1.498;2023-03-24T08:38:05;8.27;;;4.05;;
78877;SDS011;68257;43.514;1.498;2023-03-24T08:40:31;7.15;;;3.63;;
78877;SDS011;68257;43.514;1.498;2023-03-24T08:42:59;5.50;;;3.10;;
78877;SDS011;68257;43.514;1.498;2023-03-24T08:45:27;7.50;;;3.10;;
78877;SDS011;68257;43.514;1.498;2023-03-24T08:47:54;5.82;;;3.22;;
78877;SDS011;68257;43.514;1.498;2023-03-24T08:50:23;6.80;;;3.65;;
78877;SDS011;68257;43.514;1.498;2023-03-24T08:52:51;6.43;;;3.20;;
78877;SDS011;68257;43.514;1.498;2023-03-24T08:55:17;5.67;;;3.07;;
78877;SDS011;68257;43.514;1.498;2023-03-24T08:57:44;5.00;;;2.95;;
78877;SDS011;68257;43.514;1.498;2023-03-24T09:00:10;7.47;;;3.38;;
78877;SDS011;68257;43.514;1.498;2023-03-24T09:02:43;8.30;;;3.35;;
78877;SDS011;68257;43.514;1.498;2023-03-24T09:05:10;7.33;;;4.07;;
78877;SDS011;68257;43.514;1.498;2023-03-24T09:07:36;5.60;;;3.00;;
78877;SDS011;68257;43.514;1.498;2023-03-24T09:10:02;4.70;;;3.00;;
78877;SDS011;68257;43.514;1.498;2023-03-24T09:12:29;4.97;;;3.10;;
78877;SDS011;68257;43.514;1.498;2023-03-24T09:14:55;4.78;;;2.75;;
78877;SDS011;68257;43.514;1.498;2023-03-24T09:17:20;6.03;;;3.00;;
78877;SDS011;68257;43.514;1.498;2023-03-24T09:19:46;6.50;;;3.00;;
78877;SDS011;68257;43.514;1.498;2023-03-24T09:22:11;6.90;;;3.35;;
78877;SDS011;68257;43.514;1.498;2023-03-24T09:24:36;7.93;;;3.37;;
78877;SDS011;68257;43.514;1.498;2023-03-24T09:27:02;7.13;;;3.60;;
78877;SDS011;68257;43.514;1.498;2023-03-24T09:29:28;5.67;;;3.37;;
78877;SDS011;68257;43.514;1.498;2023-03-24T09:31:54;5.50;;;3.80;;
78877;SDS011;68257;43.514;1.498;2023-03-24T09:34:21;7.28;;;3.80;;
78877;SDS011;68257;43.514;1.498;2023-03-24T09:36:47;7.88;;;3.70;;
78877;SDS011;68257;43.514;1.498;2023-03-24T09:39:13;6.97;;;4.00;;
78877;SDS011;68257;43.514;1.498;2023-03-24T09:41:38;5.43;;;3.60;;
78877;SDS011;68257;43.514;1.498;2023-03-24T09:44:11;8.52;;;3.85;;
78877;SDS011;68257;43.514;1.498;2023-03-24T09:46:47;5.55;;;3.38;;
78877;SDS011;68257;43.514;1.498;2023-03-24T09:49:16;5.90;;;3.65;;
78877;SDS011;68257;43.514;1.498;2023-03-24T09:51:47;7.20;;;3.73;;
78877;SDS011;68257;43.514;1.498;2023-03-24T09:57:10;6.72;;;4.18;;
78877;SDS011;68257;43.514;1.498;2023-03-24T09:59:42;7.90;;;4.43;;
78877;SDS011;68257;43.514;1.498;2023-03-24T10:02:27;6.97;;;4.13;;
78877;SDS011;68257;43.514;1.498;2023-03-24T10:04:54;6.53;;;4.10;;
78877;SDS011;68257;43.514;1.498;2023-03-24T10:07:41;6.33;;;4.07;;
78877;SDS011;68257;43.514;1.498;2023-03-24T10:13:06;8.07;;;4.22;;
78877;SDS011;68257;43.514;1.498;2023-03-24T10:15:41;7.38;;;4.30;;
78877;SDS011;68257;43.514;1.498;2023-03-24T10:18:29;8.07;;;4.30;;
78877;SDS011;68257;43.514;1.498;2023-03-24T10:21:00;6.20;;;3.83;;
78877;SDS011;68257;43.514;1.498;2023-03-24T10:28:49;4.70;;;3.25;;
78877;SDS011;68257;43.514;1.498;2023-03-24T10:31:26;6.47;;;3.17;;
78877;SDS011;68257;43.514;1.498;2023-03-24T10:33:53;5.75;;;3.47;;
78877;SDS011;68257;43.514;1.498;2023-03-24T10:36:19;5.03;;;3.55;;
78877;SDS011;68257;43.514;1.498;2023-03-24T10:38:45;6.50;;;3.33;;
78877;SDS011;68257;43.514;1.498;2023-03-24T10:41:13;4.45;;;2.75;;
78877;SDS011;68257;43.514;1.498;2023-03-24T10:43:40;4.40;;;2.58;;
78877;SDS011;68257;43.514;1.498;2023-03-24T10:46:07;4.35;;;2.53;;
78877;SDS011;68257;43.514;1.498;2023-03-24T10:51:05;5.88;;;2.25;;
78877;SDS011;68257;43.514;1.498;2023-03-24T10:53:31;4.03;;;2.20;;
78877;SDS011;68257;43.514;1.498;2023-03-24T10:55:59;3.95;;;2.05;;
78877;SDS011;68257;43.514;1.498;2023-03-24T10:58:34;3.50;;;2.40;;
78877;SDS011;68257;43.514;1.498;2023-03-24T11:01:26;4.20;;;3.40;;
78877;SDS011;68257;43.514;1.498;2023-03-24T11:03:51;5.13;;;3.47;;
78877;SDS011;68257;43.514;1.498;2023-03-24T11:06:20;5.05;;;3.60;;
78877;SDS011;68257;43.514;1.498;2023-03-24T11:08:45;4.40;;;2.33;;
78877;SDS011;68257;43.514;1.498;2023-03-24T11:11:26;4.38;;;2.17;;
78877;SDS011;68257;43.514;1.498;2023-03-24T11:13:54;5.47;;;2.90;;
78877;SDS011;68257;43.514;1.498;2023-03-24T11:16:28;3.22;;;2.20;;
78877;SDS011;68257;43.514;1.498;2023-03-24T11:19:02;3.25;;;1.70;;
78877;SDS011;68257;43.514;1.498;2023-03-24T11:21:28;3.70;;;2.50;;
78877;SDS011;68257;43.514;1.498;2023-03-24T11:23:58;3.38;;;1.75;;
78877;SDS011;68257;43.514;1.498;2023-03-24T11:26:35;4.33;;;1.70;;
78877;SDS011;68257;43.514;1.498;2023-03-24T11:29:03;4.30;;;1.90;;
78877;SDS011;68257;43.514;1.498;2023-03-24T11:31:32;4.15;;;1.90;;
78877;SDS011;68257;43.514;1.498;2023-03-24T11:34:09;4.80;;;2.03;;
78877;SDS011;68257;43.514;1.498;2023-03-24T11:39:24;3.17;;;1.60;;
78877;SDS011;68257;43.514;1.498;2023-03-24T11:42:01;3.67;;;1.52;;
78877;SDS011;68257;43.514;1.498;2023-03-24T11:49:46;4.57;;;1.98;;
78877;SDS011;68257;43.514;1.498;2023-03-24T11:52:19;5.53;;;1.80;;
78877;SDS011;68257;43.514;1.498;2023-03-24T11:54:47;3.55;;;1.75;;
78877;SDS011;68257;43.514;1.498;2023-03-24T11:57:13;5.13;;;2.03;;
78877;SDS011;68257;43.514;1.498;2023-03-24T12:05:55;6.10;;;2.50;;
78877;SDS011;68257;43.514;1.498;2023-03-24T12:13:38;5.05;;;1.80;;
78877;SDS011;68257;43.514;1.498;2023-03-24T12:27:57;5.28;;;2.00;;
78877;SDS011;68257;43.514;1.498;2023-03-24T12:46:45;5.28;;;2.25;;
78877;SDS011;68257;43.514;1.498;2023-03-24T12:49:46;5.55;;;2.85;;
78877;SDS011;68257;43.514;1.498;2023-03-24T12:52:24;5.53;;;2.60;;
78877;SDS011;68257;43.514;1.498;2023-03-24T12:57:28;5.20;;;2.95;;
78877;SDS011;68257;43.514;1.498;2023-03-24T12:59:59;6.30;;;3.22;;
78877;SDS011;68257;43.514;1.498;2023-03-24T13:02:38;9.63;;;3.00;;
78877;SDS011;68257;43.514;1.498;2023-03-24T13:05:10;5.77;;;2.60;;
78877;SDS011;68257;43.514;1.498;2023-03-24T13:07:46;6.22;;;2.30;;
78877;SDS011;68257;43.514;1.498;2023-03-24T13:10:21;7.07;;;3.40;;
78877;SDS011;68257;43.514;1.498;2023-03-24T13:13:01;5.53;;;2.00;;
78877;SDS011;68257;43.514;1.498;2023-03-24T13:15:35;4.05;;;1.80;;
78877;SDS011;68257;43.514;1.498;2023-03-24T13:20:45;4.47;;;1.90;;
78877;SDS011;68257;43.514;1.498;2023-03-24T13:25:52;7.20;;;2.40;;
78877;SDS011;68257;43.514;1.498;2023-03-24T13:28:28;6.38;;;2.40;;
78877;SDS011;68257;43.514;1.498;2023-03-24T13:31:04;5.87;;;2.30;;
78877;SDS011;68257;43.514;1.498;2023-03-24T13:33:31;7.15;;;2.33;;
78877;SDS011;68257;43.514;1.498;2023-03-24T13:38:58;6.75;;;2.58;;
78877;SDS011;68257;43.514;1.498;2023-03-24T13:41:31;4.95;;;2.60;;
78877;SDS011;68257;43.514;1.498;2023-03-24T13:44:00;5.97;;;2.17;;
78877;SDS011;68257;43.514;1.498;2023-03-24T13:46:28;4.35;;;2.10;;
78877;SDS011;68257;43.514;1.498;2023-03-24T13:48:54;7.90;;;2.30;;
78877;SDS011;68257;43.514;1.498;2023-03-24T13:53:53;5.73;;;2.00;;
78877;SDS011;68257;43.514;1.498;2023-03-24T13:56:26;6.50;;;2.00;;
78877;SDS011;68257;43.514;1.498;2023-03-24T14:01:33;8.07;;;2.27;;
78877;SDS011;68257;43.514;1.498;2023-03-24T14:07:05;6.38;;;1.67;;
78877;SDS011;68257;43.514;1.498;2023-03-24T14:10:10;4.80;;;1.63;;
78877;SDS011;68257;43.514;1.498;2023-03-24T14:12:51;5.55;;;1.70;;
78877;SDS011;68257;43.514;1.498;2023-03-24T14:15:29;5.68;;;1.80;;
78877;SDS011;68257;43.514;1.498;2023-03-24T14:17:57;7.15;;;1.60;;
78877;SDS011;68257;43.514;1.498;2023-03-24T14:20:38;5.55;;;1.80;;
78877;SDS011;68257;43.514;1.498;2023-03-24T14:23:45;6.50;;;1.40;;
78877;SDS011;68257;43.514;1.498;2023-03-24T14:26:28;5.22;;;1.10;;
78877;SDS011;68257;43.514;1.498;2023-03-24T14:28:55;5.00;;;1.50;;
78877;SDS011;68257;43.514;1.498;2023-03-24T14:31:33;3.42;;;1.30;;
78877;SDS011;68257;43.514;1.498;2023-03-24T14:36:39;6.30;;;1.30;;
78877;SDS011;68257;43.514;1.498;2023-03-24T14:41:35;4.72;;;1.10;;
78877;SDS011;68257;43.514;1.498;2023-03-24T14:44:04;4.53;;;1.00;;
78877;SDS011;68257;43.514;1.498;2023-03-24T14:46:40;4.13;;;1.00;;
78877;SDS011;68257;43.514;1.498;2023-03-24T14:57:01;5.45;;;1.10;;
78877;SDS011;68257;43.514;1.498;2023-03-24T14:59:30;4.13;;;1.08;;
78877;SDS011;68257;43.514;1.498;2023-03-24T15:02:06;5.35;;;1.50;;
78877;SDS011;68257;43.514;1.498;2023-03-24T15:04:42;4.20;;;0.80;;
78877;SDS011;68257;43.514;1.498;2023-03-24T15:07:37;5.33;;;1.00;;
78877;SDS011;68257;43.514;1.498;2023-03-24T15:10:03;14.13;;;11.93;;
78877;SDS011;68257;43.514;1.498;2023-03-24T15:12:28;4.30;;;1.40;;
78877;SDS011;68257;43.514;1.498;2023-03-24T15:14:54;3.63;;;1.00;;
78877;SDS011;68257;43.514;1.498;2023-03-24T15:17:21;3.77;;;0.90;;
78877;SDS011;68257;43.514;1.498;2023-03-24T15:19:50;4.30;;;1.10;;
78877;SDS011;68257;43.514;1.498;2023-03-24T15:22:17;3.15;;;0.80;;
78877;SDS011;68257;43.514;1.498;2023-03-24T15:24:44;6.97;;;1.20;;
78877;SDS011;68257;43.514;1.498;2023-03-24T15:27:18;4.80;;;0.90;;
78877;SDS011;68257;43.514;1.498;2023-03-24T15:29:51;2.97;;;0.98;;
78877;SDS011;68257;43.514;1.498;2023-03-24T15:32:19;4.15;;;0.90;;
78877;SDS011;68257;43.514;1.498;2023-03-24T15:34:55;3.70;;;1.10;;
78877;SDS011;68257;43.514;1.498;2023-03-24T15:37:23;4.47;;;1.05;;
78877;SDS011;68257;43.514;1.498;2023-03-24T15:39:57;5.07;;;1.38;;
78877;SDS011;68257;43.514;1.498;2023-03-24T15:42:23;6.10;;;1.20;;
78877;SDS011;68257;43.514;1.498;2023-03-24T15:44:49;5.50;;;1.45;;
78877;SDS011;68257;43.514;1.498;2023-03-24T15:47:19;4.40;;;1.10;;
78877;SDS011;68257;43.514;1.498;2023-03-24T15:49:50;4.90;;;1.15;;
78877;SDS011;68257;43.514;1.498;2023-03-24T15:52:30;5.18;;;1.25;;
78877;SDS011;68257;43.514;1.498;2023-03-24T15:58:00;6.10;;;1.45;;
78877;SDS011;68257;43.514;1.498;2023-03-24T16:00:27;5.70;;;1.05;;
78877;SDS011;68257;43.514;1.498;2023-03-24T16:02:55;7.50;;;1.25;;
78877;SDS011;68257;43.514;1.498;2023-03-24T16:10:38;4.70;;;1.20;;
78877;SDS011;68257;43.514;1.498;2023-03-24T16:13:22;7.20;;;1.40;;
78877;SDS011;68257;43.514;1.498;2023-03-24T16:15:57;4.63;;;1.30;;
78877;SDS011;68257;43.514;1.498;2023-03-24T16:18:31;6.75;;;1.90;;
78877;SDS011;68257;43.514;1.498;2023-03-24T16:20:58;6.03;;;2.03;;
78877;SDS011;68257;43.514;1.498;2023-03-24T16:23:25;6.80;;;1.48;;
78877;SDS011;68257;43.514;1.498;2023-03-24T16:25:51;6.30;;;1.50;;
78877;SDS011;68257;43.514;1.498;2023-03-24T16:28:17;6.80;;;1.60;;
78877;SDS011;68257;43.514;1.498;2023-03-24T16:30:43;7.20;;;1.75;;
78877;SDS011;68257;43.514;1.498;2023-03-24T16:33:10;4.63;;;1.30;;
78877;SDS011;68257;43.514;1.498;2023-03-24T16:35:36;7.70;;;1.60;;
78877;SDS011;68257;43.514;1.498;2023-03-24T16:38:02;4.18;;;1.23;;
78877;SDS011;68257;43.514;1.498;2023-03-24T16:40:42;7.38;;;1.85;;
78877;SDS011;68257;43.514;1.498;2023-03-24T16:43:09;5.85;;;1.38;;
78877;SDS011;68257;43.514;1.498;2023-03-24T16:45:35;8.27;;;2.00;;
78877;SDS011;68257;43.514;1.498;2023-03-24T16:48:00;6.27;;;1.70;;
78877;SDS011;68257;43.514;1.498;2023-03-24T16:50:28;7.20;;;2.20;;
78877;SDS011;68257;43.514;1.498;2023-03-24T16:52:54;7.78;;;1.60;;
78877;SDS011;68257;43.514;1.498;2023-03-24T16:55:19;8.93;;;1.50;;
78877;SDS011;68257;43.514;1.498;2023-03-24T16:57:45;7.73;;;1.57;;
78877;SDS011;68257;43.514;1.498;2023-03-24T17:00:10;8.53;;;2.30;;
78877;SDS011;68257;43.514;1.498;2023-03-24T17:02:37;5.95;;;1.60;;
78877;SDS011;68257;43.514;1.498;2023-03-24T17:05:13;7.32;;;1.98;;
78877;SDS011;68257;43.514;1.498;2023-03-24T17:07:53;5.65;;;1.27;;
78877;SDS011;68257;43.514;1.498;2023-03-24T17:10:20;5.93;;;1.55;;
78877;SDS011;68257;43.514;1.498;2023-03-24T17:12:46;5.70;;;1.20;;
78877;SDS011;68257;43.514;1.498;2023-03-24T17:15:20;5.80;;;1.75;;
78877;SDS011;68257;43.514;1.498;2023-03-24T17:17:49;6.38;;;1.50;;
78877;SDS011;68257;43.514;1.498;2023-03-24T17:20:15;8.30;;;1.75;;
78877;SDS011;68257;43.514;1.498;2023-03-24T17:22:41;6.70;;;1.58;;
78877;SDS011;68257;43.514;1.498;2023-03-24T17:25:09;6.72;;;1.48;;
78877;SDS011;68257;43.514;1.498;2023-03-24T17:27:38;7.45;;;1.52;;
78877;SDS011;68257;43.514;1.498;2023-03-24T17:30:05;7.30;;;1.95;;